<?xml version="1.0" encoding="UTF-8" standalone="no" ?>
<gpx xmlns="http://www.topografix.com/GPX/1/1" xmlns:xsi="http://www.w3.org/2001/XMLSchema-instance" xsi:schemaLocation="http://www.topografix.com/GPX/1/1 http://www.topografix.com/GPX/1/1/gpx.xsd" version="1.1" creator="VisuGPX - https://www.visugpx.com">
  <metadata>
    <name>Traversée des Pyrénées 3/8</name>
    <desc><![CDATA[Partie 3/8 de la traversée des Pyrénées à ski.]]></desc>
  </metadata>
  <wpt lat="42.70045" lon="1.09901">
    <ele>1267.5</ele>
    <name><![CDATA[Alos de Isil]]></name>
    <type><![CDATA[user]]></type>
  </wpt>
  <wpt lat="42.66834" lon="1.00357">
    <ele>2334.7</ele>
    <name><![CDATA[Col Estany Pudo]]></name>
    <type><![CDATA[user]]></type>
  </wpt>
  <wpt lat="42.69903" lon="1.00893">
    <ele>2497.3671875</ele>
    <name><![CDATA[Coll Rosari]]></name>
    <type><![CDATA[user]]></type>
  </wpt>
  <wpt lat="42.70381" lon="1.16567">
    <ele>2542.86328125</ele>
    <name><![CDATA[Collada Mont Roig]]></name>
    <type><![CDATA[user]]></type>
  </wpt>
  <wpt lat="42.71179" lon="1.42851">
    <ele>1187.453125</ele>
    <name><![CDATA[L'Artigue]]></name>
    <type><![CDATA[user]]></type>
  </wpt>
  <wpt lat="42.71197" lon="1.27776">
    <ele>2852.0136</ele>
    <name><![CDATA[Pic de Certescan]]></name>
    <type><![CDATA[user]]></type>
  </wpt>
  <wpt lat="42.7012" lon="1.17614">
    <ele>2752.9536</ele>
    <name><![CDATA[Pic de la Gallina]]></name>
    <type><![CDATA[user]]></type>
  </wpt>
  <wpt lat="42.66386" lon="0.97978">
    <ele>2063.25390625</ele>
    <name><![CDATA[Port de la Bonaigua]]></name>
    <type><![CDATA[user]]></type>
  </wpt>
  <wpt lat="42.70308" lon="1.35079">
    <ele>2474.3</ele>
    <name><![CDATA[Port de Lartigue]]></name>
    <type><![CDATA[user]]></type>
  </wpt>
  <wpt lat="42.69695" lon="1.04158">
    <ele>2192.5</ele>
    <name><![CDATA[Ref Airoto]]></name>
    <type><![CDATA[user]]></type>
  </wpt>
  <wpt lat="42.70388" lon="1.3065">
    <ele>2232.6</ele>
    <name><![CDATA[Ref de Certescan]]></name>
    <type><![CDATA[user]]></type>
  </wpt>
  <wpt lat="42.70608" lon="1.18865">
    <ele>2295.4</ele>
    <name><![CDATA[Ref de Mont roig]]></name>
    <type><![CDATA[user]]></type>
  </wpt>
  <trk>
    <name><![CDATA[TPS3_J2 21 FEV 2017 09:06]]></name>
    <trkseg>
      <trkpt lat="42.70394" lon="1.30676">
        <ele>2181.37</ele>
        <time>2017-02-21T08:06:52Z</time>
      </trkpt>
      <trkpt lat="42.70388" lon="1.30662">
        <ele>2235.68</ele>
        <time>2017-02-21T08:12:53Z</time>
      </trkpt>
      <trkpt lat="42.70383" lon="1.30659">
        <ele>2230.88</ele>
        <time>2017-02-21T08:15:15Z</time>
      </trkpt>
      <trkpt lat="42.70379" lon="1.30636">
        <ele>2228.95</ele>
        <time>2017-02-21T08:18:49Z</time>
      </trkpt>
      <trkpt lat="42.70386" lon="1.30619">
        <ele>2228.47</ele>
        <time>2017-02-21T08:19:07Z</time>
      </trkpt>
      <trkpt lat="42.704" lon="1.30568">
        <ele>2240.49</ele>
        <time>2017-02-21T08:20:17Z</time>
      </trkpt>
      <trkpt lat="42.70403" lon="1.30556">
        <ele>2239.53</ele>
        <time>2017-02-21T08:20:39Z</time>
      </trkpt>
      <trkpt lat="42.70432" lon="1.30499">
        <ele>2244.82</ele>
        <time>2017-02-21T08:21:45Z</time>
      </trkpt>
      <trkpt lat="42.70436" lon="1.30492">
        <ele>2236.64</ele>
        <time>2017-02-21T08:21:51Z</time>
      </trkpt>
      <trkpt lat="42.70436" lon="1.30469">
        <ele>2240.01</ele>
        <time>2017-02-21T08:22:04Z</time>
      </trkpt>
      <trkpt lat="42.70441" lon="1.30434">
        <ele>2227.99</ele>
        <time>2017-02-21T08:22:36Z</time>
      </trkpt>
      <trkpt lat="42.70548" lon="1.30157">
        <ele>2240.97</ele>
        <time>2017-02-21T08:28:21Z</time>
      </trkpt>
      <trkpt lat="42.70574" lon="1.30122">
        <ele>2249.62</ele>
        <time>2017-02-21T08:29:39Z</time>
      </trkpt>
      <trkpt lat="42.70582" lon="1.30075">
        <ele>2261.16</ele>
        <time>2017-02-21T08:31:07Z</time>
      </trkpt>
      <trkpt lat="42.70607" lon="1.30013">
        <ele>2268.37</ele>
        <time>2017-02-21T08:32:46Z</time>
      </trkpt>
      <trkpt lat="42.70612" lon="1.29998">
        <ele>2267.41</ele>
        <time>2017-02-21T08:33:32Z</time>
      </trkpt>
      <trkpt lat="42.70634" lon="1.29827">
        <ele>2272.21</ele>
        <time>2017-02-21T08:36:25Z</time>
      </trkpt>
      <trkpt lat="42.70641" lon="1.29702">
        <ele>2267.89</ele>
        <time>2017-02-21T08:38:02Z</time>
      </trkpt>
      <trkpt lat="42.70654" lon="1.29631">
        <ele>2260.2</ele>
        <time>2017-02-21T08:38:34Z</time>
      </trkpt>
      <trkpt lat="42.70649" lon="1.29554">
        <ele>2270.77</ele>
        <time>2017-02-21T08:40:44Z</time>
      </trkpt>
      <trkpt lat="42.70654" lon="1.2943">
        <ele>2281.35</ele>
        <time>2017-02-21T08:42:45Z</time>
      </trkpt>
      <trkpt lat="42.70608" lon="1.29036">
        <ele>2319.8</ele>
        <time>2017-02-21T08:51:17Z</time>
      </trkpt>
      <trkpt lat="42.70558" lon="1.28952">
        <ele>2337.1</ele>
        <time>2017-02-21T08:54:06Z</time>
      </trkpt>
      <trkpt lat="42.70533" lon="1.2885">
        <ele>2359.21</ele>
        <time>2017-02-21T08:57:36Z</time>
      </trkpt>
      <trkpt lat="42.705" lon="1.28836">
        <ele>2373.15</ele>
        <time>2017-02-21T09:00:35Z</time>
      </trkpt>
      <trkpt lat="42.70454" lon="1.28684">
        <ele>2399.59</ele>
        <time>2017-02-21T09:05:07Z</time>
      </trkpt>
      <trkpt lat="42.7043" lon="1.28653">
        <ele>2406.32</ele>
        <time>2017-02-21T09:06:31Z</time>
      </trkpt>
      <trkpt lat="42.70426" lon="1.28648">
        <ele>2407.28</ele>
        <time>2017-02-21T09:06:46Z</time>
      </trkpt>
      <trkpt lat="42.70427" lon="1.28648">
        <ele>2412.09</ele>
        <time>2017-02-21T09:07:21Z</time>
      </trkpt>
      <trkpt lat="42.70431" lon="1.28649">
        <ele>2411.12</ele>
        <time>2017-02-21T09:07:37Z</time>
      </trkpt>
      <trkpt lat="42.70433" lon="1.28649">
        <ele>2414.49</ele>
        <time>2017-02-21T09:07:57Z</time>
      </trkpt>
      <trkpt lat="42.70437" lon="1.28647">
        <ele>2418.33</ele>
        <time>2017-02-21T09:08:23Z</time>
      </trkpt>
      <trkpt lat="42.7045" lon="1.28644">
        <ele>2419.78</ele>
        <time>2017-02-21T09:08:38Z</time>
      </trkpt>
      <trkpt lat="42.70464" lon="1.28641">
        <ele>2420.26</ele>
        <time>2017-02-21T09:09:01Z</time>
      </trkpt>
      <trkpt lat="42.70446" lon="1.28605">
        <ele>2430.35</ele>
        <time>2017-02-21T09:10:22Z</time>
      </trkpt>
      <trkpt lat="42.70456" lon="1.28602">
        <ele>2439</ele>
        <time>2017-02-21T09:11:11Z</time>
      </trkpt>
      <trkpt lat="42.70456" lon="1.28602">
        <ele>2434.68</ele>
        <time>2017-02-21T09:11:13Z</time>
      </trkpt>
      <trkpt lat="42.70465" lon="1.28589">
        <ele>2440.92</ele>
        <time>2017-02-21T09:12:03Z</time>
      </trkpt>
      <trkpt lat="42.70505" lon="1.28567">
        <ele>2449.1</ele>
        <time>2017-02-21T09:13:32Z</time>
      </trkpt>
      <trkpt lat="42.70509" lon="1.28521">
        <ele>2466.88</ele>
        <time>2017-02-21T09:14:55Z</time>
      </trkpt>
      <trkpt lat="42.70512" lon="1.28494">
        <ele>2463.04</ele>
        <time>2017-02-21T09:15:40Z</time>
      </trkpt>
      <trkpt lat="42.70531" lon="1.28428">
        <ele>2477.45</ele>
        <time>2017-02-21T09:18:08Z</time>
      </trkpt>
      <trkpt lat="42.70526" lon="1.2842">
        <ele>2478.9</ele>
        <time>2017-02-21T09:18:26Z</time>
      </trkpt>
      <trkpt lat="42.70536" lon="1.28423">
        <ele>2485.63</ele>
        <time>2017-02-21T09:19:15Z</time>
      </trkpt>
      <trkpt lat="42.70542" lon="1.28426">
        <ele>2486.11</ele>
        <time>2017-02-21T09:19:29Z</time>
      </trkpt>
      <trkpt lat="42.70549" lon="1.28427">
        <ele>2487.55</ele>
        <time>2017-02-21T09:19:40Z</time>
      </trkpt>
      <trkpt lat="42.7055" lon="1.28386">
        <ele>2497.64</ele>
        <time>2017-02-21T09:20:59Z</time>
      </trkpt>
      <trkpt lat="42.70561" lon="1.2838">
        <ele>2503.89</ele>
        <time>2017-02-21T09:21:58Z</time>
      </trkpt>
      <trkpt lat="42.70555" lon="1.28349">
        <ele>2507.74</ele>
        <time>2017-02-21T09:22:46Z</time>
      </trkpt>
      <trkpt lat="42.70566" lon="1.28349">
        <ele>2513.5</ele>
        <time>2017-02-21T09:23:24Z</time>
      </trkpt>
      <trkpt lat="42.70576" lon="1.2835">
        <ele>2512.54</ele>
        <time>2017-02-21T09:23:42Z</time>
      </trkpt>
      <trkpt lat="42.7056" lon="1.28326">
        <ele>2514.95</ele>
        <time>2017-02-21T09:24:30Z</time>
      </trkpt>
      <trkpt lat="42.7056" lon="1.28326">
        <ele>2517.35</ele>
        <time>2017-02-21T09:24:46Z</time>
      </trkpt>
      <trkpt lat="42.7056" lon="1.28325">
        <ele>2519.27</ele>
        <time>2017-02-21T09:25:03Z</time>
      </trkpt>
      <trkpt lat="42.70563" lon="1.28321">
        <ele>2522.64</ele>
        <time>2017-02-21T09:25:18Z</time>
      </trkpt>
      <trkpt lat="42.70569" lon="1.2832">
        <ele>2524.08</ele>
        <time>2017-02-21T09:25:32Z</time>
      </trkpt>
      <trkpt lat="42.70576" lon="1.28323">
        <ele>2524.08</ele>
        <time>2017-02-21T09:25:49Z</time>
      </trkpt>
      <trkpt lat="42.70576" lon="1.28317">
        <ele>2527.44</ele>
        <time>2017-02-21T09:26:13Z</time>
      </trkpt>
      <trkpt lat="42.70565" lon="1.28297">
        <ele>2530.81</ele>
        <time>2017-02-21T09:27:02Z</time>
      </trkpt>
      <trkpt lat="42.70598" lon="1.2829">
        <ele>2540.9</ele>
        <time>2017-02-21T09:28:31Z</time>
      </trkpt>
      <trkpt lat="42.70568" lon="1.28245">
        <ele>2554.36</ele>
        <time>2017-02-21T09:30:26Z</time>
      </trkpt>
      <trkpt lat="42.7058" lon="1.28229">
        <ele>2561.57</ele>
        <time>2017-02-21T09:31:38Z</time>
      </trkpt>
      <trkpt lat="42.70575" lon="1.28205">
        <ele>2570.22</ele>
        <time>2017-02-21T09:33:07Z</time>
      </trkpt>
      <trkpt lat="42.70587" lon="1.28149">
        <ele>2581.76</ele>
        <time>2017-02-21T09:35:03Z</time>
      </trkpt>
      <trkpt lat="42.70598" lon="1.28119">
        <ele>2584.64</ele>
        <time>2017-02-21T09:36:14Z</time>
      </trkpt>
      <trkpt lat="42.70596" lon="1.28119">
        <ele>2585.6</ele>
        <time>2017-02-21T09:39:00Z</time>
      </trkpt>
      <trkpt lat="42.70589" lon="1.28123">
        <ele>2574.07</ele>
        <time>2017-02-21T10:41:35Z</time>
      </trkpt>
      <trkpt lat="42.70598" lon="1.28117">
        <ele>2590.89</ele>
        <time>2017-02-21T10:51:34Z</time>
      </trkpt>
      <trkpt lat="42.70609" lon="1.28086">
        <ele>2587.04</ele>
        <time>2017-02-21T10:51:46Z</time>
      </trkpt>
      <trkpt lat="42.70627" lon="1.28035">
        <ele>2581.76</ele>
        <time>2017-02-21T10:51:56Z</time>
      </trkpt>
      <trkpt lat="42.7062" lon="1.2801">
        <ele>2575.51</ele>
        <time>2017-02-21T10:52:04Z</time>
      </trkpt>
      <trkpt lat="42.7061" lon="1.27993">
        <ele>2569.26</ele>
        <time>2017-02-21T10:52:13Z</time>
      </trkpt>
      <trkpt lat="42.70606" lon="1.27991">
        <ele>2565.42</ele>
        <time>2017-02-21T10:52:15Z</time>
      </trkpt>
      <trkpt lat="42.70598" lon="1.27988">
        <ele>2562.05</ele>
        <time>2017-02-21T10:52:18Z</time>
      </trkpt>
      <trkpt lat="42.70588" lon="1.27976">
        <ele>2555.32</ele>
        <time>2017-02-21T10:52:22Z</time>
      </trkpt>
      <trkpt lat="42.70585" lon="1.27887">
        <ele>2539.46</ele>
        <time>2017-02-21T10:52:37Z</time>
      </trkpt>
      <trkpt lat="42.70584" lon="1.27853">
        <ele>2533.69</ele>
        <time>2017-02-21T10:52:42Z</time>
      </trkpt>
      <trkpt lat="42.70588" lon="1.27816">
        <ele>2522.64</ele>
        <time>2017-02-21T10:52:46Z</time>
      </trkpt>
      <trkpt lat="42.70602" lon="1.27682">
        <ele>2510.62</ele>
        <time>2017-02-21T10:52:58Z</time>
      </trkpt>
      <trkpt lat="42.70592" lon="1.27618">
        <ele>2512.06</ele>
        <time>2017-02-21T10:53:18Z</time>
      </trkpt>
      <trkpt lat="42.70572" lon="1.27584">
        <ele>2491.39</ele>
        <time>2017-02-21T10:55:30Z</time>
      </trkpt>
      <trkpt lat="42.70602" lon="1.27538">
        <ele>2480.34</ele>
        <time>2017-02-21T10:56:20Z</time>
      </trkpt>
      <trkpt lat="42.706" lon="1.27521">
        <ele>2475.05</ele>
        <time>2017-02-21T10:56:23Z</time>
      </trkpt>
      <trkpt lat="42.7061" lon="1.2751">
        <ele>2471.21</ele>
        <time>2017-02-21T10:56:30Z</time>
      </trkpt>
      <trkpt lat="42.70588" lon="1.27463">
        <ele>2461.11</ele>
        <time>2017-02-21T10:56:53Z</time>
      </trkpt>
      <trkpt lat="42.70591" lon="1.27352">
        <ele>2449.1</ele>
        <time>2017-02-21T10:57:12Z</time>
      </trkpt>
      <trkpt lat="42.70591" lon="1.27335">
        <ele>2445.73</ele>
        <time>2017-02-21T10:57:14Z</time>
      </trkpt>
      <trkpt lat="42.70629" lon="1.27133">
        <ele>2434.2</ele>
        <time>2017-02-21T10:57:50Z</time>
      </trkpt>
      <trkpt lat="42.70627" lon="1.27015">
        <ele>2421.7</ele>
        <time>2017-02-21T10:59:43Z</time>
      </trkpt>
      <trkpt lat="42.70633" lon="1.26995">
        <ele>2411.6</ele>
        <time>2017-02-21T10:59:48Z</time>
      </trkpt>
      <trkpt lat="42.70644" lon="1.26934">
        <ele>2415.93</ele>
        <time>2017-02-21T11:00:04Z</time>
      </trkpt>
      <trkpt lat="42.70672" lon="1.26882">
        <ele>2393.34</ele>
        <time>2017-02-21T11:00:24Z</time>
      </trkpt>
      <trkpt lat="42.70642" lon="1.2662">
        <ele>2385.65</ele>
        <time>2017-02-21T11:01:44Z</time>
      </trkpt>
      <trkpt lat="42.70634" lon="1.26606">
        <ele>2369.31</ele>
        <time>2017-02-21T11:02:32Z</time>
      </trkpt>
      <trkpt lat="42.70639" lon="1.2658">
        <ele>2359.21</ele>
        <time>2017-02-21T11:03:18Z</time>
      </trkpt>
      <trkpt lat="42.70624" lon="1.26518">
        <ele>2348.64</ele>
        <time>2017-02-21T11:03:31Z</time>
      </trkpt>
      <trkpt lat="42.70612" lon="1.26525">
        <ele>2347.2</ele>
        <time>2017-02-21T11:03:35Z</time>
      </trkpt>
      <trkpt lat="42.70603" lon="1.2653">
        <ele>2342.87</ele>
        <time>2017-02-21T11:03:52Z</time>
      </trkpt>
      <trkpt lat="42.70586" lon="1.265">
        <ele>2332.78</ele>
        <time>2017-02-21T11:03:57Z</time>
      </trkpt>
      <trkpt lat="42.70563" lon="1.2646">
        <ele>2329.41</ele>
        <time>2017-02-21T11:04:08Z</time>
      </trkpt>
      <trkpt lat="42.70528" lon="1.26484">
        <ele>2311.15</ele>
        <time>2017-02-21T11:04:15Z</time>
      </trkpt>
      <trkpt lat="42.70469" lon="1.26519">
        <ele>2310.67</ele>
        <time>2017-02-21T11:04:30Z</time>
      </trkpt>
      <trkpt lat="42.70421" lon="1.26494">
        <ele>2301.53</ele>
        <time>2017-02-21T11:04:55Z</time>
      </trkpt>
      <trkpt lat="42.70401" lon="1.26462">
        <ele>2307.3</ele>
        <time>2017-02-21T11:05:41Z</time>
      </trkpt>
      <trkpt lat="42.70357" lon="1.26364">
        <ele>2278.94</ele>
        <time>2017-02-21T11:07:00Z</time>
      </trkpt>
      <trkpt lat="42.70348" lon="1.26354">
        <ele>2272.21</ele>
        <time>2017-02-21T11:07:02Z</time>
      </trkpt>
      <trkpt lat="42.70325" lon="1.26327">
        <ele>2263.08</ele>
        <time>2017-02-21T11:07:08Z</time>
      </trkpt>
      <trkpt lat="42.70294" lon="1.26389">
        <ele>2250.1</ele>
        <time>2017-02-21T11:07:24Z</time>
      </trkpt>
      <trkpt lat="42.70274" lon="1.26381">
        <ele>2239.53</ele>
        <time>2017-02-21T11:07:42Z</time>
      </trkpt>
      <trkpt lat="42.70254" lon="1.26384">
        <ele>2233.76</ele>
        <time>2017-02-21T11:08:12Z</time>
      </trkpt>
      <trkpt lat="42.70309" lon="1.26146">
        <ele>2177.52</ele>
        <time>2017-02-21T11:10:30Z</time>
      </trkpt>
      <trkpt lat="42.70298" lon="1.26109">
        <ele>2178</ele>
        <time>2017-02-21T11:10:37Z</time>
      </trkpt>
      <trkpt lat="42.70286" lon="1.26074">
        <ele>2173.68</ele>
        <time>2017-02-21T11:10:50Z</time>
      </trkpt>
      <trkpt lat="42.70283" lon="1.26033">
        <ele>2169.83</ele>
        <time>2017-02-21T11:10:58Z</time>
      </trkpt>
      <trkpt lat="42.70273" lon="1.25999">
        <ele>2166.47</ele>
        <time>2017-02-21T11:11:04Z</time>
      </trkpt>
      <trkpt lat="42.70245" lon="1.25986">
        <ele>2169.35</ele>
        <time>2017-02-21T11:20:10Z</time>
      </trkpt>
      <trkpt lat="42.70246" lon="1.25985">
        <ele>2174.16</ele>
        <time>2017-02-21T11:21:00Z</time>
      </trkpt>
      <trkpt lat="42.70252" lon="1.25984">
        <ele>2177.52</ele>
        <time>2017-02-21T11:21:34Z</time>
      </trkpt>
      <trkpt lat="42.70254" lon="1.25983">
        <ele>2178.97</ele>
        <time>2017-02-21T11:21:48Z</time>
      </trkpt>
      <trkpt lat="42.70256" lon="1.25976">
        <ele>2179.93</ele>
        <time>2017-02-21T11:22:03Z</time>
      </trkpt>
      <trkpt lat="42.70256" lon="1.25947">
        <ele>2193.87</ele>
        <time>2017-02-21T11:24:35Z</time>
      </trkpt>
      <trkpt lat="42.70251" lon="1.2592">
        <ele>2200.59</ele>
        <time>2017-02-21T11:25:54Z</time>
      </trkpt>
      <trkpt lat="42.70244" lon="1.25895">
        <ele>2207.32</ele>
        <time>2017-02-21T11:27:05Z</time>
      </trkpt>
      <trkpt lat="42.70245" lon="1.25863">
        <ele>2213.09</ele>
        <time>2017-02-21T11:28:06Z</time>
      </trkpt>
      <trkpt lat="42.70243" lon="1.25834">
        <ele>2215.5</ele>
        <time>2017-02-21T11:28:36Z</time>
      </trkpt>
      <trkpt lat="42.70252" lon="1.25637">
        <ele>2249.14</ele>
        <time>2017-02-21T11:34:08Z</time>
      </trkpt>
      <trkpt lat="42.70245" lon="1.25629">
        <ele>2247.22</ele>
        <time>2017-02-21T11:49:32Z</time>
      </trkpt>
      <trkpt lat="42.7025" lon="1.25623">
        <ele>2254.43</ele>
        <time>2017-02-21T12:01:53Z</time>
      </trkpt>
      <trkpt lat="42.70251" lon="1.25629">
        <ele>2246.26</ele>
        <time>2017-02-21T12:02:11Z</time>
      </trkpt>
      <trkpt lat="42.70258" lon="1.25645">
        <ele>2241.93</ele>
        <time>2017-02-21T12:02:16Z</time>
      </trkpt>
      <trkpt lat="42.70274" lon="1.25659">
        <ele>2241.93</ele>
        <time>2017-02-21T12:02:29Z</time>
      </trkpt>
      <trkpt lat="42.70288" lon="1.2562">
        <ele>2235.2</ele>
        <time>2017-02-21T12:02:51Z</time>
      </trkpt>
      <trkpt lat="42.70304" lon="1.2561">
        <ele>2231.36</ele>
        <time>2017-02-21T12:03:00Z</time>
      </trkpt>
      <trkpt lat="42.70395" lon="1.25616">
        <ele>2227.03</ele>
        <time>2017-02-21T12:04:53Z</time>
      </trkpt>
      <trkpt lat="42.70421" lon="1.25612">
        <ele>2222.22</ele>
        <time>2017-02-21T12:05:14Z</time>
      </trkpt>
      <trkpt lat="42.70491" lon="1.25547">
        <ele>2209.25</ele>
        <time>2017-02-21T12:06:02Z</time>
      </trkpt>
      <trkpt lat="42.70514" lon="1.25438">
        <ele>2211.17</ele>
        <time>2017-02-21T12:08:02Z</time>
      </trkpt>
      <trkpt lat="42.7055" lon="1.25392">
        <ele>2216.46</ele>
        <time>2017-02-21T12:09:18Z</time>
      </trkpt>
      <trkpt lat="42.70559" lon="1.25382">
        <ele>2216.94</ele>
        <time>2017-02-21T12:09:37Z</time>
      </trkpt>
      <trkpt lat="42.70567" lon="1.25366">
        <ele>2217.42</ele>
        <time>2017-02-21T12:10:15Z</time>
      </trkpt>
      <trkpt lat="42.70567" lon="1.25368">
        <ele>2218.38</ele>
        <time>2017-02-21T12:10:34Z</time>
      </trkpt>
      <trkpt lat="42.70532" lon="1.25289">
        <ele>2232.8</ele>
        <time>2017-02-21T12:12:57Z</time>
      </trkpt>
      <trkpt lat="42.7056" lon="1.25302">
        <ele>2240.49</ele>
        <time>2017-02-21T12:14:02Z</time>
      </trkpt>
      <trkpt lat="42.70547" lon="1.25273">
        <ele>2247.22</ele>
        <time>2017-02-21T12:15:09Z</time>
      </trkpt>
      <trkpt lat="42.70557" lon="1.25239">
        <ele>2256.83</ele>
        <time>2017-02-21T12:16:26Z</time>
      </trkpt>
      <trkpt lat="42.70559" lon="1.25233">
        <ele>2257.79</ele>
        <time>2017-02-21T12:16:45Z</time>
      </trkpt>
      <trkpt lat="42.70582" lon="1.25189">
        <ele>2263.56</ele>
        <time>2017-02-21T12:18:00Z</time>
      </trkpt>
      <trkpt lat="42.70587" lon="1.25158">
        <ele>2264.04</ele>
        <time>2017-02-21T12:18:30Z</time>
      </trkpt>
      <trkpt lat="42.70583" lon="1.25107">
        <ele>2274.62</ele>
        <time>2017-02-21T12:24:42Z</time>
      </trkpt>
      <trkpt lat="42.70573" lon="1.25101">
        <ele>2259.24</ele>
        <time>2017-02-21T12:28:40Z</time>
      </trkpt>
      <trkpt lat="42.70585" lon="1.25045">
        <ele>2247.22</ele>
        <time>2017-02-21T12:28:58Z</time>
      </trkpt>
      <trkpt lat="42.70576" lon="1.25014">
        <ele>2238.09</ele>
        <time>2017-02-21T12:29:02Z</time>
      </trkpt>
      <trkpt lat="42.70573" lon="1.24949">
        <ele>2234.72</ele>
        <time>2017-02-21T12:30:51Z</time>
      </trkpt>
      <trkpt lat="42.70562" lon="1.24902">
        <ele>2230.4</ele>
        <time>2017-02-21T12:31:39Z</time>
      </trkpt>
      <trkpt lat="42.70576" lon="1.24884">
        <ele>2224.15</ele>
        <time>2017-02-21T12:31:54Z</time>
      </trkpt>
      <trkpt lat="42.70602" lon="1.24875">
        <ele>2224.63</ele>
        <time>2017-02-21T12:32:00Z</time>
      </trkpt>
      <trkpt lat="42.70607" lon="1.24848">
        <ele>2220.3</ele>
        <time>2017-02-21T12:32:08Z</time>
      </trkpt>
      <trkpt lat="42.70595" lon="1.2483">
        <ele>2215.01</ele>
        <time>2017-02-21T12:32:15Z</time>
      </trkpt>
      <trkpt lat="42.70607" lon="1.24817">
        <ele>2213.57</ele>
        <time>2017-02-21T12:32:19Z</time>
      </trkpt>
      <trkpt lat="42.70603" lon="1.24748">
        <ele>2200.11</ele>
        <time>2017-02-21T12:33:22Z</time>
      </trkpt>
      <trkpt lat="42.70604" lon="1.24729">
        <ele>2196.27</ele>
        <time>2017-02-21T12:33:27Z</time>
      </trkpt>
      <trkpt lat="42.70599" lon="1.24698">
        <ele>2189.06</ele>
        <time>2017-02-21T12:33:37Z</time>
      </trkpt>
      <trkpt lat="42.70617" lon="1.24677">
        <ele>2183.77</ele>
        <time>2017-02-21T12:33:46Z</time>
      </trkpt>
      <trkpt lat="42.70621" lon="1.24638">
        <ele>2172.72</ele>
        <time>2017-02-21T12:33:59Z</time>
      </trkpt>
      <trkpt lat="42.70636" lon="1.24627">
        <ele>2170.31</ele>
        <time>2017-02-21T12:34:03Z</time>
      </trkpt>
      <trkpt lat="42.70647" lon="1.24602">
        <ele>2163.58</ele>
        <time>2017-02-21T12:34:08Z</time>
      </trkpt>
      <trkpt lat="42.70667" lon="1.24565">
        <ele>2156.86</ele>
        <time>2017-02-21T12:34:14Z</time>
      </trkpt>
      <trkpt lat="42.70639" lon="1.24499">
        <ele>2158.3</ele>
        <time>2017-02-21T12:34:35Z</time>
      </trkpt>
      <trkpt lat="42.70638" lon="1.24498">
        <ele>2153.97</ele>
        <time>2017-02-21T12:34:53Z</time>
      </trkpt>
      <trkpt lat="42.70628" lon="1.24487">
        <ele>2150.13</ele>
        <time>2017-02-21T12:34:58Z</time>
      </trkpt>
      <trkpt lat="42.70618" lon="1.24411">
        <ele>2140.03</ele>
        <time>2017-02-21T12:35:16Z</time>
      </trkpt>
      <trkpt lat="42.70619" lon="1.24373">
        <ele>2132.34</ele>
        <time>2017-02-21T12:35:23Z</time>
      </trkpt>
      <trkpt lat="42.70623" lon="1.24365">
        <ele>2137.15</ele>
        <time>2017-02-21T12:35:38Z</time>
      </trkpt>
      <trkpt lat="42.70636" lon="1.24349">
        <ele>2128.98</ele>
        <time>2017-02-21T12:35:57Z</time>
      </trkpt>
      <trkpt lat="42.70686" lon="1.24297">
        <ele>2123.69</ele>
        <time>2017-02-21T12:36:14Z</time>
      </trkpt>
      <trkpt lat="42.7068" lon="1.24252">
        <ele>2106.39</ele>
        <time>2017-02-21T12:36:56Z</time>
      </trkpt>
      <trkpt lat="42.70669" lon="1.24249">
        <ele>2102.06</ele>
        <time>2017-02-21T12:37:00Z</time>
      </trkpt>
      <trkpt lat="42.70632" lon="1.24226">
        <ele>2085.24</ele>
        <time>2017-02-21T12:37:59Z</time>
      </trkpt>
      <trkpt lat="42.70631" lon="1.24215">
        <ele>2079.47</ele>
        <time>2017-02-21T12:38:02Z</time>
      </trkpt>
      <trkpt lat="42.70662" lon="1.24171">
        <ele>2064.57</ele>
        <time>2017-02-21T12:38:26Z</time>
      </trkpt>
      <trkpt lat="42.70658" lon="1.24138">
        <ele>2049.67</ele>
        <time>2017-02-21T12:39:06Z</time>
      </trkpt>
      <trkpt lat="42.7062" lon="1.24143">
        <ele>2037.65</ele>
        <time>2017-02-21T12:39:18Z</time>
      </trkpt>
      <trkpt lat="42.70615" lon="1.24133">
        <ele>2033.33</ele>
        <time>2017-02-21T12:39:21Z</time>
      </trkpt>
      <trkpt lat="42.70618" lon="1.24123">
        <ele>2028.52</ele>
        <time>2017-02-21T12:39:23Z</time>
      </trkpt>
      <trkpt lat="42.70616" lon="1.24117">
        <ele>2023.23</ele>
        <time>2017-02-21T12:39:25Z</time>
      </trkpt>
      <trkpt lat="42.70603" lon="1.24119">
        <ele>2021.31</ele>
        <time>2017-02-21T12:39:28Z</time>
      </trkpt>
      <trkpt lat="42.70589" lon="1.24096">
        <ele>2009.29</ele>
        <time>2017-02-21T12:39:35Z</time>
      </trkpt>
      <trkpt lat="42.70586" lon="1.24052">
        <ele>1990.55</ele>
        <time>2017-02-21T12:39:56Z</time>
      </trkpt>
      <trkpt lat="42.70605" lon="1.24007">
        <ele>1966.51</ele>
        <time>2017-02-21T12:40:35Z</time>
      </trkpt>
      <trkpt lat="42.70644" lon="1.23987">
        <ele>1956.9</ele>
        <time>2017-02-21T12:41:05Z</time>
      </trkpt>
      <trkpt lat="42.70638" lon="1.2398">
        <ele>1953.06</ele>
        <time>2017-02-21T12:41:09Z</time>
      </trkpt>
      <trkpt lat="42.70639" lon="1.23974">
        <ele>1947.29</ele>
        <time>2017-02-21T12:41:11Z</time>
      </trkpt>
      <trkpt lat="42.7066" lon="1.23962">
        <ele>1943.44</ele>
        <time>2017-02-21T12:41:17Z</time>
      </trkpt>
      <trkpt lat="42.70669" lon="1.23955">
        <ele>1937.67</ele>
        <time>2017-02-21T12:41:19Z</time>
      </trkpt>
      <trkpt lat="42.70699" lon="1.23933">
        <ele>1936.71</ele>
        <time>2017-02-21T12:41:37Z</time>
      </trkpt>
      <trkpt lat="42.70705" lon="1.2391">
        <ele>1927.58</ele>
        <time>2017-02-21T12:41:59Z</time>
      </trkpt>
      <trkpt lat="42.70701" lon="1.23895">
        <ele>1924.7</ele>
        <time>2017-02-21T12:42:03Z</time>
      </trkpt>
      <trkpt lat="42.70694" lon="1.23887">
        <ele>1919.89</ele>
        <time>2017-02-21T12:42:05Z</time>
      </trkpt>
      <trkpt lat="42.70693" lon="1.23876">
        <ele>1917.97</ele>
        <time>2017-02-21T12:42:07Z</time>
      </trkpt>
      <trkpt lat="42.7069" lon="1.23872">
        <ele>1914.12</ele>
        <time>2017-02-21T12:42:08Z</time>
      </trkpt>
      <trkpt lat="42.70674" lon="1.23842">
        <ele>1901.63</ele>
        <time>2017-02-21T12:42:13Z</time>
      </trkpt>
      <trkpt lat="42.70659" lon="1.23811">
        <ele>1891.53</ele>
        <time>2017-02-21T12:42:18Z</time>
      </trkpt>
      <trkpt lat="42.7061" lon="1.23765">
        <ele>1873.27</ele>
        <time>2017-02-21T12:42:34Z</time>
      </trkpt>
      <trkpt lat="42.70583" lon="1.23735">
        <ele>1861.25</ele>
        <time>2017-02-21T12:42:43Z</time>
      </trkpt>
      <trkpt lat="42.70591" lon="1.23734">
        <ele>1858.37</ele>
        <time>2017-02-21T12:51:32Z</time>
      </trkpt>
      <trkpt lat="42.70577" lon="1.23739">
        <ele>1856.92</ele>
        <time>2017-02-21T12:52:20Z</time>
      </trkpt>
      <trkpt lat="42.70569" lon="1.23728">
        <ele>1853.08</ele>
        <time>2017-02-21T12:52:25Z</time>
      </trkpt>
      <trkpt lat="42.70541" lon="1.23723">
        <ele>1844.43</ele>
        <time>2017-02-21T12:52:33Z</time>
      </trkpt>
      <trkpt lat="42.70496" lon="1.2372">
        <ele>1836.74</ele>
        <time>2017-02-21T12:52:44Z</time>
      </trkpt>
      <trkpt lat="42.70457" lon="1.23649">
        <ele>1831.93</ele>
        <time>2017-02-21T12:53:04Z</time>
      </trkpt>
      <trkpt lat="42.70373" lon="1.23635">
        <ele>1808.38</ele>
        <time>2017-02-21T12:53:24Z</time>
      </trkpt>
      <trkpt lat="42.70337" lon="1.23596">
        <ele>1806.94</ele>
        <time>2017-02-21T12:53:43Z</time>
      </trkpt>
      <trkpt lat="42.70332" lon="1.23573">
        <ele>1807.42</ele>
        <time>2017-02-21T12:53:58Z</time>
      </trkpt>
      <trkpt lat="42.70317" lon="1.23576">
        <ele>1800.21</ele>
        <time>2017-02-21T12:54:12Z</time>
      </trkpt>
      <trkpt lat="42.7028" lon="1.23516">
        <ele>1773.29</ele>
        <time>2017-02-21T12:54:45Z</time>
      </trkpt>
      <trkpt lat="42.70246" lon="1.23494">
        <ele>1765.12</ele>
        <time>2017-02-21T12:55:01Z</time>
      </trkpt>
      <trkpt lat="42.7021" lon="1.23496">
        <ele>1759.83</ele>
        <time>2017-02-21T12:55:15Z</time>
      </trkpt>
      <trkpt lat="42.70134" lon="1.23487">
        <ele>1773.77</ele>
        <time>2017-02-21T12:57:34Z</time>
      </trkpt>
      <trkpt lat="42.70129" lon="1.2347">
        <ele>1756.95</ele>
        <time>2017-02-21T12:59:54Z</time>
      </trkpt>
      <trkpt lat="42.70129" lon="1.23474">
        <ele>1755.5</ele>
        <time>2017-02-21T13:00:15Z</time>
      </trkpt>
      <trkpt lat="42.70132" lon="1.23507">
        <ele>1752.14</ele>
        <time>2017-02-21T13:01:40Z</time>
      </trkpt>
      <trkpt lat="42.7011" lon="1.23515">
        <ele>1745.89</ele>
        <time>2017-02-21T13:01:52Z</time>
      </trkpt>
      <trkpt lat="42.70081" lon="1.23437">
        <ele>1728.59</ele>
        <time>2017-02-21T13:02:10Z</time>
      </trkpt>
      <trkpt lat="42.70054" lon="1.23397">
        <ele>1721.38</ele>
        <time>2017-02-21T13:02:20Z</time>
      </trkpt>
      <trkpt lat="42.70025" lon="1.23375">
        <ele>1711.28</ele>
        <time>2017-02-21T13:02:28Z</time>
      </trkpt>
      <trkpt lat="42.70008" lon="1.23339">
        <ele>1706</ele>
        <time>2017-02-21T13:02:33Z</time>
      </trkpt>
      <trkpt lat="42.69956" lon="1.23274">
        <ele>1702.63</ele>
        <time>2017-02-21T13:02:57Z</time>
      </trkpt>
      <trkpt lat="42.69952" lon="1.23265">
        <ele>1700.23</ele>
        <time>2017-02-21T13:07:29Z</time>
      </trkpt>
      <trkpt lat="42.69953" lon="1.23266">
        <ele>1705.04</ele>
        <time>2017-02-21T13:14:32Z</time>
      </trkpt>
      <trkpt lat="42.69953" lon="1.23266">
        <ele>1700.71</ele>
        <time>2017-02-21T13:14:33Z</time>
      </trkpt>
      <trkpt lat="42.69955" lon="1.23254">
        <ele>1701.19</ele>
        <time>2017-02-21T13:15:05Z</time>
      </trkpt>
      <trkpt lat="42.69951" lon="1.23222">
        <ele>1701.19</ele>
        <time>2017-02-21T13:15:55Z</time>
      </trkpt>
      <trkpt lat="42.69949" lon="1.23163">
        <ele>1705.52</ele>
        <time>2017-02-21T13:17:16Z</time>
      </trkpt>
      <trkpt lat="42.69943" lon="1.23112">
        <ele>1706.96</ele>
        <time>2017-02-21T13:18:08Z</time>
      </trkpt>
      <trkpt lat="42.6996" lon="1.22977">
        <ele>1720.9</ele>
        <time>2017-02-21T13:21:01Z</time>
      </trkpt>
      <trkpt lat="42.69996" lon="1.22913">
        <ele>1729.07</ele>
        <time>2017-02-21T13:22:45Z</time>
      </trkpt>
      <trkpt lat="42.69989" lon="1.22894">
        <ele>1732.43</ele>
        <time>2017-02-21T13:23:14Z</time>
      </trkpt>
      <trkpt lat="42.69991" lon="1.22842">
        <ele>1735.8</ele>
        <time>2017-02-21T13:24:15Z</time>
      </trkpt>
      <trkpt lat="42.69991" lon="1.22841">
        <ele>1728.59</ele>
        <time>2017-02-21T13:24:20Z</time>
      </trkpt>
      <trkpt lat="42.69991" lon="1.22841">
        <ele>1736.76</ele>
        <time>2017-02-21T13:24:21Z</time>
      </trkpt>
      <trkpt lat="42.69991" lon="1.22841">
        <ele>1735.8</ele>
        <time>2017-02-21T13:24:46Z</time>
      </trkpt>
      <trkpt lat="42.69994" lon="1.22844">
        <ele>1735.8</ele>
        <time>2017-02-21T13:25:10Z</time>
      </trkpt>
      <trkpt lat="42.70003" lon="1.22842">
        <ele>1736.76</ele>
        <time>2017-02-21T13:25:28Z</time>
      </trkpt>
      <trkpt lat="42.70031" lon="1.22828">
        <ele>1751.66</ele>
        <time>2017-02-21T13:26:54Z</time>
      </trkpt>
      <trkpt lat="42.70034" lon="1.22826">
        <ele>1740.6</ele>
        <time>2017-02-21T13:28:54Z</time>
      </trkpt>
      <trkpt lat="42.7004" lon="1.22802">
        <ele>1743.97</ele>
        <time>2017-02-21T13:32:44Z</time>
      </trkpt>
      <trkpt lat="42.70057" lon="1.22797">
        <ele>1747.81</ele>
        <time>2017-02-21T13:33:16Z</time>
      </trkpt>
      <trkpt lat="42.70072" lon="1.22719">
        <ele>1771.37</ele>
        <time>2017-02-21T13:36:40Z</time>
      </trkpt>
      <trkpt lat="42.70074" lon="1.22711">
        <ele>1773.77</ele>
        <time>2017-02-21T13:36:57Z</time>
      </trkpt>
      <trkpt lat="42.70075" lon="1.22682">
        <ele>1779.54</ele>
        <time>2017-02-21T13:37:50Z</time>
      </trkpt>
      <trkpt lat="42.70125" lon="1.22548">
        <ele>1789.63</ele>
        <time>2017-02-21T13:41:30Z</time>
      </trkpt>
      <trkpt lat="42.70129" lon="1.22519">
        <ele>1788.19</ele>
        <time>2017-02-21T13:41:58Z</time>
      </trkpt>
      <trkpt lat="42.70152" lon="1.22459">
        <ele>1793.96</ele>
        <time>2017-02-21T13:43:15Z</time>
      </trkpt>
      <trkpt lat="42.70167" lon="1.22438">
        <ele>1799.73</ele>
        <time>2017-02-21T13:44:04Z</time>
      </trkpt>
      <trkpt lat="42.70175" lon="1.22421">
        <ele>1801.17</ele>
        <time>2017-02-21T13:44:27Z</time>
      </trkpt>
      <trkpt lat="42.70189" lon="1.22336">
        <ele>1806.45</ele>
        <time>2017-02-21T13:46:14Z</time>
      </trkpt>
      <trkpt lat="42.70215" lon="1.22317">
        <ele>1831.93</ele>
        <time>2017-02-21T13:50:05Z</time>
      </trkpt>
      <trkpt lat="42.70227" lon="1.22311">
        <ele>1828.56</ele>
        <time>2017-02-21T13:50:34Z</time>
      </trkpt>
      <trkpt lat="42.70251" lon="1.22276">
        <ele>1831.45</ele>
        <time>2017-02-21T13:51:21Z</time>
      </trkpt>
      <trkpt lat="42.70261" lon="1.22185">
        <ele>1837.7</ele>
        <time>2017-02-21T13:53:35Z</time>
      </trkpt>
      <trkpt lat="42.70265" lon="1.2213">
        <ele>1843.47</ele>
        <time>2017-02-21T13:54:48Z</time>
      </trkpt>
      <trkpt lat="42.70257" lon="1.22038">
        <ele>1844.43</ele>
        <time>2017-02-21T13:56:31Z</time>
      </trkpt>
      <trkpt lat="42.70268" lon="1.22002">
        <ele>1849.71</ele>
        <time>2017-02-21T13:57:19Z</time>
      </trkpt>
      <trkpt lat="42.70328" lon="1.21834">
        <ele>1873.27</ele>
        <time>2017-02-21T14:01:18Z</time>
      </trkpt>
      <trkpt lat="42.70333" lon="1.21821">
        <ele>1859.33</ele>
        <time>2017-02-21T14:01:49Z</time>
      </trkpt>
      <trkpt lat="42.70353" lon="1.21798">
        <ele>1867.5</ele>
        <time>2017-02-21T14:03:12Z</time>
      </trkpt>
      <trkpt lat="42.70371" lon="1.21774">
        <ele>1872.3</ele>
        <time>2017-02-21T14:04:19Z</time>
      </trkpt>
      <trkpt lat="42.70375" lon="1.21757">
        <ele>1874.23</ele>
        <time>2017-02-21T14:04:51Z</time>
      </trkpt>
      <trkpt lat="42.70401" lon="1.21707">
        <ele>1877.59</ele>
        <time>2017-02-21T14:06:19Z</time>
      </trkpt>
      <trkpt lat="42.70424" lon="1.21666">
        <ele>1892.97</ele>
        <time>2017-02-21T14:08:20Z</time>
      </trkpt>
      <trkpt lat="42.70434" lon="1.21641">
        <ele>1878.07</ele>
        <time>2017-02-21T14:09:17Z</time>
      </trkpt>
      <trkpt lat="42.70497" lon="1.21349">
        <ele>1870.86</ele>
        <time>2017-02-21T14:14:30Z</time>
      </trkpt>
      <trkpt lat="42.70582" lon="1.2116">
        <ele>1894.9</ele>
        <time>2017-02-21T14:21:04Z</time>
      </trkpt>
      <trkpt lat="42.70603" lon="1.21109">
        <ele>1898.26</ele>
        <time>2017-02-21T14:28:24Z</time>
      </trkpt>
      <trkpt lat="42.70604" lon="1.21093">
        <ele>1902.11</ele>
        <time>2017-02-21T14:28:55Z</time>
      </trkpt>
      <trkpt lat="42.70597" lon="1.21046">
        <ele>1904.99</ele>
        <time>2017-02-21T14:29:49Z</time>
      </trkpt>
      <trkpt lat="42.70576" lon="1.2099">
        <ele>1913.16</ele>
        <time>2017-02-21T14:31:25Z</time>
      </trkpt>
      <trkpt lat="42.70593" lon="1.20886">
        <ele>1924.7</ele>
        <time>2017-02-21T14:34:11Z</time>
      </trkpt>
      <trkpt lat="42.70594" lon="1.20856">
        <ele>1924.22</ele>
        <time>2017-02-21T14:35:15Z</time>
      </trkpt>
      <trkpt lat="42.70629" lon="1.20614">
        <ele>1931.91</ele>
        <time>2017-02-21T14:39:30Z</time>
      </trkpt>
      <trkpt lat="42.70632" lon="1.20584">
        <ele>1920.85</ele>
        <time>2017-02-21T14:40:10Z</time>
      </trkpt>
      <trkpt lat="42.70644" lon="1.20552">
        <ele>1924.22</ele>
        <time>2017-02-21T14:41:01Z</time>
      </trkpt>
      <trkpt lat="42.70636" lon="1.20433">
        <ele>1943.92</ele>
        <time>2017-02-21T14:44:15Z</time>
      </trkpt>
      <trkpt lat="42.70667" lon="1.20332">
        <ele>1964.59</ele>
        <time>2017-02-21T14:47:35Z</time>
      </trkpt>
      <trkpt lat="42.70643" lon="1.20315">
        <ele>1975.65</ele>
        <time>2017-02-21T14:49:05Z</time>
      </trkpt>
      <trkpt lat="42.70654" lon="1.20255">
        <ele>1982.38</ele>
        <time>2017-02-21T14:51:55Z</time>
      </trkpt>
      <trkpt lat="42.70662" lon="1.2016">
        <ele>1992.95</ele>
        <time>2017-02-21T14:54:20Z</time>
      </trkpt>
      <trkpt lat="42.70683" lon="1.20044">
        <ele>2001.6</ele>
        <time>2017-02-21T14:57:02Z</time>
      </trkpt>
      <trkpt lat="42.70676" lon="1.2002">
        <ele>2008.81</ele>
        <time>2017-02-21T14:57:54Z</time>
      </trkpt>
      <trkpt lat="42.70677" lon="1.20001">
        <ele>2013.62</ele>
        <time>2017-02-21T14:58:47Z</time>
      </trkpt>
      <trkpt lat="42.70715" lon="1.19864">
        <ele>2038.13</ele>
        <time>2017-02-21T15:03:29Z</time>
      </trkpt>
      <trkpt lat="42.70716" lon="1.19852">
        <ele>2039.09</ele>
        <time>2017-02-21T15:03:48Z</time>
      </trkpt>
      <trkpt lat="42.70719" lon="1.19805">
        <ele>2045.82</ele>
        <time>2017-02-21T15:05:13Z</time>
      </trkpt>
      <trkpt lat="42.70717" lon="1.19777">
        <ele>2048.71</ele>
        <time>2017-02-21T15:05:48Z</time>
      </trkpt>
      <trkpt lat="42.70709" lon="1.19691">
        <ele>2053.99</ele>
        <time>2017-02-21T15:07:41Z</time>
      </trkpt>
      <trkpt lat="42.70711" lon="1.19563">
        <ele>2076.1</ele>
        <time>2017-02-21T15:11:08Z</time>
      </trkpt>
      <trkpt lat="42.70732" lon="1.19462">
        <ele>2089.56</ele>
        <time>2017-02-21T15:13:57Z</time>
      </trkpt>
      <trkpt lat="42.70732" lon="1.19453">
        <ele>2081.39</ele>
        <time>2017-02-21T15:14:18Z</time>
      </trkpt>
      <trkpt lat="42.70684" lon="1.19314">
        <ele>2100.62</ele>
        <time>2017-02-21T15:21:35Z</time>
      </trkpt>
      <trkpt lat="42.70653" lon="1.19252">
        <ele>2108.31</ele>
        <time>2017-02-21T15:23:21Z</time>
      </trkpt>
      <trkpt lat="42.70657" lon="1.192">
        <ele>2118.88</ele>
        <time>2017-02-21T15:25:18Z</time>
      </trkpt>
      <trkpt lat="42.7065" lon="1.19207">
        <ele>2123.21</ele>
        <time>2017-02-21T15:26:14Z</time>
      </trkpt>
      <trkpt lat="42.70629" lon="1.1924">
        <ele>2130.9</ele>
        <time>2017-02-21T15:27:47Z</time>
      </trkpt>
      <trkpt lat="42.70618" lon="1.19231">
        <ele>2136.19</ele>
        <time>2017-02-21T15:28:35Z</time>
      </trkpt>
      <trkpt lat="42.70587" lon="1.19308">
        <ele>2170.31</ele>
        <time>2017-02-21T15:34:33Z</time>
      </trkpt>
      <trkpt lat="42.70556" lon="1.19351">
        <ele>2181.85</ele>
        <time>2017-02-21T15:37:36Z</time>
      </trkpt>
      <trkpt lat="42.70544" lon="1.19365">
        <ele>2184.25</ele>
        <time>2017-02-21T15:39:28Z</time>
      </trkpt>
      <trkpt lat="42.70549" lon="1.1935">
        <ele>2185.21</ele>
        <time>2017-02-21T15:39:58Z</time>
      </trkpt>
      <trkpt lat="42.70519" lon="1.19262">
        <ele>2193.87</ele>
        <time>2017-02-21T15:43:02Z</time>
      </trkpt>
      <trkpt lat="42.70524" lon="1.19239">
        <ele>2197.71</ele>
        <time>2017-02-21T15:43:48Z</time>
      </trkpt>
      <trkpt lat="42.70526" lon="1.19234">
        <ele>2200.11</ele>
        <time>2017-02-21T15:44:25Z</time>
      </trkpt>
      <trkpt lat="42.70553" lon="1.19034">
        <ele>2246.74</ele>
        <time>2017-02-21T15:53:56Z</time>
      </trkpt>
      <trkpt lat="42.70565" lon="1.18992">
        <ele>2257.79</ele>
        <time>2017-02-21T15:55:48Z</time>
      </trkpt>
      <trkpt lat="42.70582" lon="1.18983">
        <ele>2265.96</ele>
        <time>2017-02-21T15:57:09Z</time>
      </trkpt>
      <trkpt lat="42.70594" lon="1.18942">
        <ele>2276.54</ele>
        <time>2017-02-21T15:58:49Z</time>
      </trkpt>
      <trkpt lat="42.70591" lon="1.1891">
        <ele>2282.31</ele>
        <time>2017-02-21T16:05:28Z</time>
      </trkpt>
    </trkseg>
  </trk>
</gpx>